createdAt,value
2017-11-04T00:01:26.938Z,101288.23
2017-11-04T00:03:53.662Z,101288.56
2017-11-04T00:06:19.842Z,101283.70
2017-11-04T00:08:46.029Z,101285.81
2017-11-04T00:11:12.719Z,101283.94
2017-11-04T00:13:38.929Z,101287.85
2017-11-04T00:16:05.141Z,101283.84
2017-11-04T00:18:31.706Z,101282.08
2017-11-04T00:20:57.905Z,101276.34
2017-11-04T00:23:24.351Z,101277.27
2017-11-04T00:25:50.671Z,101270.27
2017-11-04T00:28:16.868Z,101273.33
2017-11-04T00:30:43.081Z,101266.71
2017-11-04T00:33:09.402Z,101268.93
2017-11-04T00:35:35.577Z,101266.41
2017-11-04T00:38:01.777Z,101269.88
2017-11-04T00:40:28.114Z,101261.13
2017-11-04T00:42:54.315Z,101255.05
2017-11-04T00:45:20.517Z,101256.80
2017-11-04T00:47:47.105Z,101259.94
2017-11-04T00:50:13.321Z,101262.11
2017-11-04T00:52:39.527Z,101262.02
2017-11-04T00:55:06.069Z,101256.29
2017-11-04T00:57:32.266Z,101255.36
2017-11-04T00:59:58.472Z,101251.47
2017-11-04T01:02:24.743Z,101248.88
2017-11-04T01:04:50.920Z,101249.28
2017-11-04T01:07:17.341Z,101249.64
2017-11-04T01:09:43.596Z,101246.96
2017-11-04T01:12:09.947Z,101247.31
2017-11-04T01:14:36.154Z,101242.94
2017-11-04T01:17:02.419Z,101238.95
2017-11-04T01:19:28.611Z,101240.34
2017-11-04T01:21:55.048Z,101225.46
2017-11-04T01:24:21.388Z,101235.96
2017-11-04T01:26:47.575Z,101240.86
2017-11-04T01:29:13.778Z,101243.98
2017-11-04T01:31:40.029Z,101248.80
2017-11-04T01:34:06.460Z,101247.61
2017-11-04T01:36:32.646Z,101242.84
2017-11-04T01:38:58.924Z,101230.67
2017-11-04T01:41:25.378Z,101231.14
2017-11-04T01:43:51.828Z,101225.80
2017-11-04T01:46:18.076Z,101220.14
2017-11-04T01:48:44.258Z,101220.99
2017-11-04T01:51:10.719Z,101221.41
2017-11-04T01:53:36.784Z,101222.25
2017-11-04T01:56:02.992Z,101224.83
2017-11-04T01:58:29.217Z,101229.61
2017-11-04T02:00:55.454Z,101222.63
2017-11-04T02:03:21.650Z,101217.88
2017-11-04T02:05:47.848Z,101215.28
2017-11-04T02:08:14.123Z,101213.61
2017-11-04T02:10:40.331Z,101211.94
2017-11-04T02:13:06.872Z,101213.80
2017-11-04T02:15:33.126Z,101216.89
2017-11-04T02:17:59.329Z,101210.34
2017-11-04T02:20:25.525Z,101207.73
2017-11-04T02:22:52.245Z,101213.00
2017-11-04T02:25:18.461Z,101208.21
2017-11-04T02:27:44.676Z,101202.52
2017-11-04T02:30:10.935Z,101198.64
2017-11-04T02:32:37.370Z,101194.70
2017-11-04T02:35:03.563Z,101195.08
2017-11-04T02:37:30.224Z,101185.44
2017-11-04T02:39:56.432Z,101182.78
2017-11-04T02:42:22.633Z,101184.09
2017-11-04T02:44:48.868Z,101185.52
2017-11-04T02:47:15.072Z,101184.64
2017-11-04T02:49:41.268Z,101184.17
2017-11-04T02:52:07.600Z,101190.77
2017-11-04T02:54:33.789Z,101187.22
2017-11-04T02:56:59.987Z,101185.89
2017-11-04T02:59:26.569Z,101187.13
2017-11-04T03:01:52.849Z,101185.84
2017-11-04T03:04:19.032Z,101181.44
2017-11-04T03:06:45.294Z,101181.28
2017-11-04T03:09:11.478Z,101177.78
2017-11-04T03:11:37.985Z,101182.52
2017-11-04T03:14:04.229Z,101180.80
2017-11-04T03:16:30.432Z,101175.09
2017-11-04T03:18:56.631Z,101176.38
2017-11-04T03:21:23.013Z,101174.69
2017-11-04T03:23:49.449Z,101170.72
2017-11-04T03:26:15.675Z,101169.84
2017-11-04T03:28:41.999Z,101166.34
2017-11-04T03:31:08.194Z,101161.19
2017-11-04T03:33:34.373Z,101161.30
2017-11-04T03:36:00.588Z,101155.98
2017-11-04T03:38:26.908Z,101151.58
2017-11-04T03:40:53.104Z,101156.45
2017-11-04T03:43:19.566Z,101158.69
2017-11-04T03:45:46.245Z,101157.88
2017-11-04T03:48:12.446Z,101159.67
2017-11-04T03:50:38.628Z,101157.11
2017-11-04T03:53:04.891Z,101154.02
2017-11-04T03:55:31.089Z,101151.44
2017-11-04T03:57:57.289Z,101148.81
2017-11-04T04:00:23.882Z,101145.32
2017-11-04T04:02:50.239Z,101141.82
2017-11-04T04:05:16.438Z,101144.03
2017-11-04T04:07:42.760Z,101145.83
2017-11-04T04:10:08.943Z,101142.77
2017-11-04T04:12:35.124Z,101135.33
2017-11-04T04:15:01.362Z,101138.05
2017-11-04T04:17:27.557Z,101134.48
2017-11-04T04:19:53.756Z,101126.56
2017-11-04T04:22:20.357Z,101122.23
2017-11-04T04:24:46.546Z,101124.86
2017-11-04T04:27:12.745Z,101123.91
2017-11-04T04:29:39.079Z,101123.44
2017-11-04T04:32:05.283Z,101119.94
2017-11-04T04:34:31.490Z,101114.23
2017-11-04T04:36:57.765Z,101124.70
2017-11-04T04:39:24.083Z,101121.29
2017-11-04T04:41:50.350Z,101118.25
2017-11-04T04:44:16.825Z,101115.16
2017-11-04T04:46:43.117Z,101109.06
2017-11-04T04:49:09.320Z,101103.81
2017-11-04T04:51:35.520Z,101101.63
2017-11-04T04:54:02.113Z,101106.48
2017-11-04T04:56:28.306Z,101107.39
2017-11-04T04:58:54.506Z,101104.80
2017-11-04T05:01:20.840Z,101113.24
2017-11-04T05:03:47.124Z,101112.80
2017-11-04T05:06:13.317Z,101119.83
2017-11-04T05:08:39.636Z,101109.85
2017-11-04T05:11:05.830Z,101109.41
2017-11-04T05:13:32.014Z,101108.56
2017-11-04T05:15:58.947Z,101107.28
2017-11-04T05:18:25.140Z,101102.03
2017-11-04T05:20:51.328Z,101095.94
2017-11-04T05:23:17.591Z,101097.33
2017-11-04T05:25:43.863Z,101100.39
2017-11-04T05:28:10.097Z,101098.16
2017-11-04T05:30:36.515Z,101095.94
2017-11-04T05:33:02.726Z,101087.58
2017-11-04T05:35:28.930Z,101087.91
2017-11-04T05:37:55.175Z,101086.56
2017-11-04T05:40:21.391Z,101080.03
2017-11-04T05:42:47.573Z,101071.28
2017-11-04T05:45:13.910Z,101071.64
2017-11-04T05:47:40.116Z,101073.86
2017-11-04T05:50:06.340Z,101072.13
2017-11-04T05:52:32.841Z,101074.43
2017-11-04T05:54:59.270Z,101054.04
2017-11-04T05:57:25.696Z,101074.37
2017-11-04T05:59:52.082Z,101080.94
2017-11-04T06:02:18.385Z,101078.28
2017-11-04T06:04:44.628Z,101088.78
2017-11-04T06:07:10.847Z,101084.02
2017-11-04T06:09:37.096Z,101088.84
2017-11-04T06:12:03.343Z,101084.52
2017-11-04T06:14:29.524Z,101082.93
2017-11-04T06:16:56.014Z,101082.98
2017-11-04T06:19:22.541Z,101088.61
2017-11-04T06:21:48.768Z,101090.31
2017-11-04T06:24:15.233Z,101093.38
2017-11-04T06:26:41.475Z,101094.27
2017-11-04T06:29:07.713Z,101088.64
2017-11-04T06:31:33.946Z,101098.67
2017-11-04T06:34:00.257Z,101089.84
2017-11-04T06:36:26.676Z,101092.08
2017-11-04T06:38:52.845Z,101090.00
2017-11-04T06:41:19.114Z,101087.52
2017-11-04T06:43:45.298Z,101083.22
2017-11-04T06:46:11.498Z,101074.53
2017-11-04T06:48:38.064Z,101084.23
2017-11-04T06:51:04.257Z,101085.87
2017-11-04T06:53:30.665Z,101075.78
2017-11-04T06:55:57.066Z,101064.42
2017-11-04T06:58:23.371Z,101065.70
2017-11-04T07:00:49.866Z,101066.88
2017-11-04T07:03:16.408Z,101071.61
2017-11-04T07:05:42.627Z,101075.01
2017-11-04T07:08:08.838Z,101072.27
2017-11-04T07:10:35.416Z,101072.19
2017-11-04T07:13:01.613Z,101072.62
2017-11-04T07:15:27.820Z,101071.45
2017-11-04T07:17:54.248Z,101063.69
2017-11-04T07:20:20.453Z,101062.02
2017-11-04T07:22:46.643Z,101061.17
2017-11-04T07:25:13.251Z,101054.62
2017-11-04T07:27:39.440Z,101050.66
2017-11-04T07:30:05.870Z,101046.25
2017-11-04T07:32:32.209Z,101047.56
2017-11-04T07:34:58.647Z,101049.29
2017-11-04T07:37:24.889Z,101038.33
2017-11-04T07:39:51.274Z,101040.08
2017-11-04T07:42:17.480Z,101042.73
2017-11-04T07:44:43.932Z,101037.86
2017-11-04T07:47:10.433Z,101039.15
2017-11-04T07:49:36.627Z,101049.64
2017-11-04T07:52:03.111Z,101047.64
2017-11-04T07:54:29.326Z,101041.84
2017-11-04T07:56:55.524Z,101039.19
2017-11-04T07:59:22.152Z,101028.40
2017-11-04T08:01:48.593Z,101028.83
2017-11-04T08:04:14.792Z,101027.94
2017-11-04T08:06:41.122Z,101024.91
2017-11-04T08:09:07.342Z,101032.36
2017-11-04T08:11:33.549Z,101031.60
2017-11-04T08:14:00.048Z,101016.27
2017-11-04T08:16:26.297Z,101014.48
2017-11-04T08:18:52.671Z,101013.62
2017-11-04T08:21:19.014Z,101013.13
2017-11-04T08:23:45.212Z,101001.28
2017-11-04T08:26:11.659Z,101000.00
2017-11-04T08:28:38.349Z,101003.96
2017-11-04T08:31:04.549Z,101002.59
2017-11-04T08:33:30.742Z,100999.97
2017-11-04T08:35:56.990Z,100997.78
2017-11-04T08:38:23.187Z,100993.29
2017-11-04T08:40:49.484Z,100998.63
2017-11-04T08:43:16.093Z,100998.10
2017-11-04T08:45:42.351Z,100998.92
2017-11-04T08:48:08.858Z,100996.30
2017-11-04T08:50:35.518Z,100994.55
2017-11-04T08:53:01.765Z,100987.08
2017-11-04T08:55:28.011Z,100983.14
2017-11-04T08:57:54.932Z,100977.45
2017-11-04T09:00:21.381Z,100980.11
2017-11-04T09:05:14.025Z,100979.52
2017-11-04T09:07:40.238Z,100976.05
2017-11-04T09:10:06.431Z,100976.92
2017-11-04T09:12:32.770Z,100968.61
2017-11-04T09:14:59.209Z,100961.15
2017-11-04T09:17:25.439Z,100962.02
2017-11-04T09:19:52.083Z,100961.59
2017-11-04T09:22:18.298Z,100956.77
2017-11-04T09:24:44.757Z,100956.27
2017-11-04T09:27:11.021Z,100955.37
2017-11-04T09:29:37.213Z,100940.09
2017-11-04T09:32:03.522Z,100944.78
2017-11-04T09:34:29.858Z,100943.77
2017-11-04T09:36:56.053Z,100922.77
2017-11-04T09:39:22.492Z,100924.89
2017-11-04T09:41:48.746Z,100921.36
2017-11-04T09:44:15.006Z,100924.83
2017-11-04T09:46:41.201Z,100926.58
2017-11-04T09:49:07.530Z,100918.60
2017-11-04T09:51:33.720Z,100915.34
2017-11-04T09:54:00.170Z,100917.97
2017-11-04T09:56:27.606Z,100918.50
2017-11-04T09:58:53.814Z,100917.25
2017-11-04T10:01:20.008Z,100919.44
2017-11-04T10:03:47.321Z,100908.97
2017-11-04T10:06:13.526Z,100908.09
2017-11-04T10:08:39.735Z,100912.44
2017-11-04T10:11:06.041Z,100904.53
2017-11-04T10:13:32.244Z,100904.06
2017-11-04T10:15:58.681Z,100890.46
2017-11-04T10:18:24.953Z,100886.92
2017-11-04T10:20:51.206Z,100882.84
2017-11-04T10:23:17.402Z,100873.52
2017-11-04T10:25:44.048Z,100867.36
2017-11-04T10:28:10.337Z,100876.91
2017-11-04T10:30:36.591Z,100871.26
2017-11-04T10:33:02.899Z,100873.81
2017-11-04T10:35:29.180Z,100864.55
2017-11-04T10:37:55.479Z,100854.34
2017-11-04T10:40:21.777Z,100851.42
2017-11-04T10:42:48.052Z,100843.14
2017-11-04T10:45:14.356Z,100844.30
2017-11-04T10:47:40.789Z,100835.48
2017-11-04T10:50:07.079Z,100830.47
2017-11-04T10:52:33.358Z,100823.00
2017-11-04T10:55:00.044Z,100816.98
2017-11-04T10:57:26.261Z,100809.53
2017-11-04T10:59:52.478Z,100807.31
2017-11-04T11:02:18.786Z,100800.78
2017-11-04T11:04:45.018Z,100793.41
2017-11-04T11:07:11.191Z,100797.42
2017-11-04T11:09:37.813Z,100800.09
2017-11-04T11:12:04.059Z,100801.08
2017-11-04T11:14:30.614Z,100805.49
2017-11-04T11:16:56.912Z,100803.27
2017-11-04T11:19:23.157Z,100802.20
2017-11-04T11:21:49.475Z,100807.94
2017-11-04T11:24:16.244Z,100805.78
2017-11-04T11:26:42.685Z,100799.22
2017-11-04T11:29:08.903Z,100801.84
2017-11-04T11:31:35.469Z,100794.00
2017-11-04T11:34:01.669Z,100784.69
2017-11-04T11:36:27.867Z,100779.33
2017-11-04T11:38:54.125Z,100777.09
2017-11-04T11:41:20.321Z,100774.91
2017-11-04T11:43:46.531Z,100772.00
2017-11-04T11:46:13.091Z,100773.42
2017-11-04T11:48:39.301Z,100768.68
2017-11-04T11:51:05.790Z,100768.32
2017-11-04T11:53:32.044Z,100760.52
2017-11-04T11:55:58.286Z,100746.07
2017-11-04T11:58:24.733Z,100745.05
2017-11-04T12:00:51.114Z,100742.30
2017-11-04T12:03:17.299Z,100740.44
2017-11-04T12:05:43.498Z,100732.48
2017-11-04T12:08:10.138Z,100732.40
2017-11-04T12:10:36.587Z,100717.55
2017-11-04T12:13:02.774Z,100714.08
2017-11-04T12:15:29.024Z,100704.25
2017-11-04T12:17:55.243Z,100702.16
2017-11-04T12:20:21.446Z,100687.48
2017-11-04T12:22:47.724Z,100695.55
2017-11-04T12:25:13.967Z,100689.31
2017-11-04T12:27:40.288Z,100687.87
2017-11-04T12:30:06.528Z,100685.50
2017-11-04T12:32:32.740Z,100690.05
2017-11-04T12:34:58.936Z,100691.67
2017-11-04T12:37:25.457Z,100674.92
2017-11-04T12:39:51.656Z,100681.41
2017-11-04T12:42:17.864Z,100667.95
2017-11-04T12:44:44.111Z,100660.58
2017-11-04T12:47:10.311Z,100655.62
2017-11-04T12:49:36.534Z,100652.41
2017-11-04T12:52:02.797Z,100644.37
2017-11-04T12:54:28.997Z,100646.52
2017-11-04T12:56:55.445Z,100644.77
2017-11-04T12:59:22.059Z,100645.98
2017-11-04T13:01:48.322Z,100638.86
2017-11-04T13:04:14.596Z,100634.14
2017-11-04T13:06:41.318Z,100627.91
2017-11-04T13:09:07.609Z,100624.78
2017-11-04T13:11:33.895Z,100618.69
2017-11-04T13:14:00.564Z,100622.11
2017-11-04T13:16:26.849Z,100627.27
2017-11-04T13:18:53.119Z,100626.99
2017-11-04T13:21:19.627Z,100624.65
2017-11-04T13:23:46.084Z,100621.09
2017-11-04T13:26:12.343Z,100626.44
2017-11-04T13:28:38.677Z,100627.66
2017-11-04T13:31:04.942Z,100622.59
2017-11-04T13:33:31.201Z,100611.72
2017-11-04T13:35:57.602Z,100613.20
2017-11-04T13:38:23.901Z,100614.50
2017-11-04T13:40:50.164Z,100609.28
2017-11-04T13:43:16.475Z,100609.63
2017-11-04T13:45:42.728Z,100607.98
2017-11-04T13:48:08.988Z,100609.97
2017-11-04T13:50:35.321Z,100598.22
2017-11-04T13:53:01.892Z,100595.16
2017-11-04T13:55:28.147Z,100589.12
2017-11-04T13:57:54.561Z,100588.38
2017-11-04T14:00:20.832Z,100585.61
2017-11-04T14:02:47.105Z,100582.14
2017-11-04T14:05:13.498Z,100584.95
2017-11-04T14:07:39.772Z,100581.16
2017-11-04T14:10:06.306Z,100583.05
2017-11-04T14:12:32.648Z,100580.22
2017-11-04T14:14:58.886Z,100577.69
2017-11-04T14:17:25.155Z,100570.41
2017-11-04T14:19:52.304Z,100566.03
2017-11-04T14:22:18.658Z,100569.78
2017-11-04T14:24:44.921Z,100557.77
2017-11-04T14:27:11.313Z,100552.22
2017-11-04T14:29:37.582Z,100550.22
2017-11-04T14:32:04.085Z,100543.02
2017-11-04T14:34:30.753Z,100549.12
2017-11-04T14:36:57.011Z,100545.02
2017-11-04T14:39:23.318Z,100552.70
2017-11-04T14:41:49.598Z,100544.14
2017-11-04T14:44:15.871Z,100550.71
2017-11-04T14:46:42.144Z,100545.87
2017-11-04T14:49:08.591Z,100535.59
2017-11-04T14:51:34.841Z,100532.81
2017-11-04T14:54:01.115Z,100531.20
2017-11-04T14:56:27.530Z,100534.84
2017-11-04T14:58:54.049Z,100530.12
2017-11-04T15:01:20.379Z,100527.97
2017-11-04T15:03:46.803Z,100531.56
2017-11-04T15:06:13.345Z,100520.72
2017-11-04T15:08:39.627Z,100514.28
2017-11-04T15:11:05.942Z,100512.27
2017-11-04T15:13:32.212Z,100507.67
2017-11-04T15:15:58.939Z,100500.84
2017-11-04T15:18:25.213Z,100498.27
2017-11-04T15:20:51.497Z,100507.56
2017-11-04T15:23:18.342Z,100506.83
2017-11-04T15:25:44.679Z,100498.64
2017-11-04T15:28:10.993Z,100489.58
2017-11-04T15:30:37.318Z,100490.10
2017-11-04T15:33:03.621Z,100481.88
2017-11-04T15:35:29.894Z,100470.10
2017-11-04T15:37:56.230Z,100461.86
2017-11-04T15:40:22.491Z,100465.86
2017-11-04T15:42:48.755Z,100472.47
2017-11-04T15:45:15.157Z,100483.94
2017-11-04T15:47:41.679Z,100476.98
2017-11-04T15:50:07.952Z,100466.52
2017-11-04T15:52:34.368Z,100465.73
2017-11-04T15:55:00.617Z,100447.88
2017-11-04T15:57:26.887Z,100444.45
2017-11-04T15:59:53.697Z,100433.16
2017-11-04T16:02:19.955Z,100432.78
2017-11-04T16:04:46.229Z,100449.01
2017-11-04T16:07:12.680Z,100440.30
2017-11-04T16:09:38.948Z,100436.01
2017-11-04T16:12:05.478Z,100434.70
2017-11-04T16:14:31.982Z,100436.48
2017-11-04T16:16:58.242Z,100443.54
2017-11-04T16:19:24.495Z,100441.88
2017-11-04T16:21:50.889Z,100436.66
2017-11-04T16:24:17.132Z,100436.19
2017-11-04T16:26:43.432Z,100437.94
2017-11-04T16:29:09.737Z,100451.94
2017-11-04T16:31:35.991Z,100451.63
2017-11-04T16:34:02.272Z,100447.30
2017-11-04T16:36:28.705Z,100453.03
2017-11-04T16:38:54.981Z,100439.08
2017-11-04T16:41:21.230Z,100440.83
2017-11-04T16:43:47.621Z,100439.11
2017-11-04T16:46:13.892Z,100439.55
2017-11-04T16:48:46.186Z,100430.41
2017-11-04T16:51:12.541Z,100432.64
2017-11-04T16:53:39.156Z,100428.31
2017-11-04T16:56:05.666Z,100438.80
2017-11-04T16:58:32.061Z,100447.52
2017-11-04T17:00:58.331Z,100448.08
2017-11-04T17:03:24.845Z,100438.45
2017-11-04T17:05:51.525Z,100444.63
2017-11-04T17:08:17.784Z,100444.66
2017-11-04T17:10:44.065Z,100431.10
2017-11-04T17:13:10.376Z,100431.98
2017-11-04T17:15:36.644Z,100429.35
2017-11-04T17:18:02.919Z,100422.88
2017-11-04T17:20:29.402Z,100427.73
2017-11-04T17:22:55.657Z,100418.11
2017-11-04T17:25:21.922Z,100423.00
2017-11-04T17:27:48.778Z,100414.30
2017-11-04T17:30:15.342Z,100414.26
2017-11-04T17:32:41.634Z,100413.81
2017-11-04T17:35:08.271Z,100415.27
2017-11-04T17:37:34.951Z,100404.34
2017-11-04T17:40:01.189Z,100408.27
2017-11-04T17:42:27.559Z,100403.84
2017-11-04T17:44:54.069Z,100401.27
2017-11-04T17:47:20.328Z,100397.34
2017-11-04T17:49:46.707Z,100404.33
2017-11-04T17:52:13.296Z,100401.27
2017-11-04T17:54:39.562Z,100392.08
2017-11-04T17:59:32.280Z,100389.55
2017-11-04T18:01:58.546Z,100386.88
2017-11-04T18:04:24.960Z,100386.48
2017-11-04T18:06:51.453Z,100375.98
2017-11-04T18:09:17.742Z,100376.38
2017-11-04T18:11:44.200Z,100370.70
2017-11-04T18:14:10.485Z,100374.77
2017-11-04T18:16:36.732Z,100375.69
2017-11-04T18:19:03.120Z,100379.19
2017-11-04T18:21:29.381Z,100366.06
2017-11-04T18:23:55.635Z,100369.56
2017-11-04T18:26:22.048Z,100368.25
2017-11-04T18:28:48.376Z,100363.44
2017-11-04T18:31:14.640Z,100359.11
2017-11-04T18:33:41.372Z,100351.23
2017-11-04T18:36:07.646Z,100352.98
2017-11-04T18:38:33.907Z,100359.11
2017-11-04T18:41:00.639Z,100356.00
2017-11-04T18:43:26.906Z,100355.52
2017-11-04T18:45:53.198Z,100351.20
2017-11-04T18:48:20.333Z,100349.88
2017-11-04T18:50:46.607Z,100347.70
2017-11-04T18:53:13.141Z,100344.16
2017-11-04T18:55:39.455Z,100342.02
2017-11-04T18:58:05.722Z,100338.91
2017-11-04T19:00:32.016Z,100336.36
2017-11-04T19:02:58.613Z,100330.64
2017-11-04T19:05:25.130Z,100332.34
2017-11-04T19:07:51.399Z,100331.52
2017-11-04T19:10:18.141Z,100326.27
2017-11-04T19:12:44.419Z,100333.18
2017-11-04T19:15:10.683Z,100335.84
2017-11-04T19:17:37.087Z,100332.78
2017-11-04T19:20:03.391Z,100325.39
2017-11-04T19:22:29.687Z,100326.66
2017-11-04T19:24:55.998Z,100320.98
2017-11-04T19:27:22.264Z,100311.44
2017-11-04T19:29:48.604Z,100311.44
2017-11-04T19:32:14.954Z,100311.87
2017-11-04T19:34:41.213Z,100304.97
2017-11-04T19:37:07.536Z,100307.20
2017-11-04T19:39:34.402Z,100299.85
2017-11-04T19:42:00.675Z,100304.98
2017-11-04T19:44:26.916Z,100305.36
2017-11-04T19:46:53.240Z,100304.05
2017-11-04T19:49:19.513Z,100299.72
2017-11-04T19:51:45.789Z,100298.76
2017-11-04T19:54:12.484Z,100300.03
2017-11-04T19:56:38.749Z,100296.92
2017-11-04T19:59:05.030Z,100289.92
2017-11-04T20:01:31.649Z,100287.34
2017-11-04T20:03:58.157Z,100288.27
2017-11-04T20:06:24.409Z,100283.89
2017-11-04T20:08:50.824Z,100285.16
2017-11-04T20:11:17.081Z,100289.53
2017-11-04T20:13:43.364Z,100295.27
2017-11-04T20:16:09.989Z,100286.55
2017-11-04T20:18:36.266Z,100285.20
2017-11-04T20:21:02.555Z,100291.28
2017-11-04T20:23:29.115Z,100286.03
2017-11-04T20:25:55.418Z,100283.45
2017-11-04T20:28:21.981Z,100277.73
2017-11-04T20:30:48.359Z,100274.18
2017-11-04T20:33:14.662Z,100278.59
2017-11-04T20:35:40.922Z,100277.33
2017-11-04T20:38:07.217Z,100271.13
2017-11-04T20:40:33.487Z,100267.63
2017-11-04T20:42:59.747Z,100269.38
2017-11-04T20:45:26.080Z,100265.44
2017-11-04T20:47:52.347Z,100270.77
2017-11-04T20:50:18.593Z,100265.91
2017-11-04T20:52:45.256Z,100265.03
2017-11-04T20:55:11.751Z,100267.66
2017-11-04T20:57:37.996Z,100265.00
2017-11-04T21:00:04.653Z,100258.00
2017-11-04T21:02:30.952Z,100254.95
2017-11-04T21:04:57.256Z,100254.59
2017-11-04T21:07:23.677Z,100245.45
2017-11-04T21:09:49.954Z,100248.52
2017-11-04T21:12:16.230Z,100241.91
2017-11-04T21:14:42.933Z,100248.42
2017-11-04T21:17:09.189Z,100244.88
2017-11-04T21:19:35.441Z,100249.22
2017-11-04T21:22:01.782Z,100238.33
2017-11-04T21:24:28.067Z,100239.16
2017-11-04T21:26:54.337Z,100237.93
2017-11-04T21:29:20.955Z,100233.95
2017-11-04T21:31:47.354Z,100229.18
2017-11-04T21:34:13.620Z,100229.23
2017-11-04T21:36:39.922Z,100228.78
2017-11-04T21:39:06.436Z,100230.50
2017-11-04T21:41:32.691Z,100234.05
2017-11-04T21:43:59.374Z,100228.80
2017-11-04T21:46:25.618Z,100224.37
2017-11-04T21:48:51.906Z,100226.56
2017-11-04T21:51:18.222Z,100224.38
2017-11-04T21:53:44.468Z,100222.67
2017-11-04T21:56:11.004Z,100232.25
2017-11-04T21:58:37.662Z,100223.50
2017-11-04T22:01:04.280Z,100225.69
2017-11-04T22:03:30.773Z,100225.77
2017-11-04T22:05:57.114Z,100228.40
2017-11-04T22:08:23.613Z,100229.27
2017-11-04T22:10:49.872Z,100222.27
2017-11-04T22:13:16.284Z,100222.71
2017-11-04T22:15:42.553Z,100224.42
2017-11-04T22:18:08.813Z,100224.91
2017-11-04T22:20:35.167Z,100225.77
2017-11-04T22:23:01.354Z,100228.88
2017-11-04T22:25:27.784Z,100231.52
2017-11-04T22:27:54.038Z,100228.45
2017-11-04T22:30:20.240Z,100229.31
2017-11-04T22:32:46.807Z,100234.56
2017-11-04T22:35:13.049Z,100229.37
2017-11-04T22:37:39.240Z,100228.06
2017-11-04T22:40:05.681Z,100228.97
2017-11-04T22:42:32.029Z,100223.30
2017-11-04T22:44:58.230Z,100227.23
2017-11-04T22:47:24.416Z,100230.77
2017-11-04T22:49:50.677Z,100222.86
2017-11-04T22:52:16.887Z,100223.25
2017-11-04T22:54:43.366Z,100223.25
2017-11-04T22:57:09.849Z,100227.19
2017-11-04T22:59:36.296Z,100221.50
2017-11-04T23:02:02.493Z,100228.93
2017-11-04T23:04:28.734Z,100226.79
2017-11-04T23:06:54.941Z,100227.19
2017-11-04T23:09:21.145Z,100231.16
2017-11-04T23:11:47.602Z,100227.17
2017-11-04T23:14:13.807Z,100226.26
2017-11-04T23:16:40.009Z,100228.55
2017-11-04T23:19:06.229Z,100228.14
2017-11-04T23:21:32.743Z,100224.60
2017-11-04T23:23:59.202Z,100229.80
2017-11-04T23:26:25.404Z,100228.10
2017-11-04T23:28:51.649Z,100233.34
2017-11-04T23:31:17.839Z,100228.10
2017-11-04T23:33:44.046Z,100234.17
2017-11-04T23:36:10.379Z,100227.66
2017-11-04T23:38:42.843Z,100227.62
2017-11-04T23:41:09.037Z,100231.98
2017-11-04T23:43:35.288Z,100222.38
2017-11-04T23:46:01.489Z,100227.66
2017-11-04T23:48:27.664Z,100224.20
2017-11-04T23:50:53.925Z,100225.52
2017-11-04T23:53:20.120Z,100225.52
2017-11-04T23:55:46.325Z,100218.97
2017-11-04T23:58:15.884Z,100222.02
